<?xml version="1.0" encoding="UTF-8" standalone="no" ?><gpx xmlns="http://www.topografix.com/GPX/1/1" xmlns:gpxx="http://www.garmin.com/xmlschemas/GpxExtensions/v3" xmlns:gpxtpx="http://www.garmin.com/xmlschemas/TrackPointExtension/v1" creator="Foretrex 301" version="1.1" xmlns:xsi="http://www.w3.org/2001/XMLSchema-instance" xsi:schemaLocation="http://www.topografix.com/GPX/1/1 http://www.topografix.com/GPX/1/1/gpx.xsd http://www.garmin.com/xmlschemas/GpxExtensions/v3 http://www.garmin.com/xmlschemas/GpxExtensions/v3/GpxExtensionsv3.xsd"><metadata><link href="http://www.garmin.com"><text>Garmin International</text></link><time>2011-03-02T12:17:06Z</time></metadata><trk><name>ACTIVE LOG: 02 MAR 2011 09:58</name><trkseg><trkpt lat="51.785940" lon="-2.196105"><ele>138.09</ele><time>2011-03-02T09:58:09Z</time></trkpt><trkpt lat="51.785939" lon="-2.196067"><ele>137.61</ele><time>2011-03-02T09:58:16Z</time></trkpt><trkpt lat="51.785928" lon="-2.196015"><ele>137.13</ele><time>2011-03-02T09:58:20Z</time></trkpt><trkpt lat="51.785871" lon="-2.195895"><ele>136.16</ele><time>2011-03-02T09:58:28Z</time></trkpt><trkpt lat="51.785843" lon="-2.195855"><ele>135.68</ele><time>2011-03-02T09:58:31Z</time></trkpt><trkpt lat="51.785799" lon="-2.195786"><ele>135.20</ele><time>2011-03-02T09:58:37Z</time></trkpt><trkpt lat="51.785785" lon="-2.195756"><ele>134.72</ele><time>2011-03-02T09:58:39Z</time></trkpt><trkpt lat="51.785731" lon="-2.195515"><ele>134.24</ele><time>2011-03-02T09:58:52Z</time></trkpt><trkpt lat="51.785765" lon="-2.195449"><ele>136.64</ele><time>2011-03-02T09:58:57Z</time></trkpt><trkpt lat="51.785860" lon="-2.195299"><ele>140.97</ele><time>2011-03-02T09:59:07Z</time></trkpt><trkpt lat="51.785899" lon="-2.195248"><ele>142.41</ele><time>2011-03-02T09:59:11Z</time></trkpt><trkpt lat="51.785926" lon="-2.195216"><ele>143.37</ele><time>2011-03-02T09:59:14Z</time></trkpt><trkpt lat="51.786060" lon="-2.195047"><ele>147.22</ele><time>2011-03-02T09:59:28Z</time></trkpt><trkpt lat="51.786172" lon="-2.194915"><ele>151.54</ele><time>2011-03-02T09:59:41Z</time></trkpt><trkpt lat="51.786304" lon="-2.194734"><ele>155.39</ele><time>2011-03-02T09:59:55Z</time></trkpt><trkpt lat="51.786350" lon="-2.194666"><ele>157.31</ele><time>2011-03-02T10:00:01Z</time></trkpt><trkpt lat="51.786432" lon="-2.194603"><ele>157.79</ele><time>2011-03-02T10:00:10Z</time></trkpt><trkpt lat="51.786451" lon="-2.194570"><ele>158.27</ele><time>2011-03-02T10:00:13Z</time></trkpt><trkpt lat="51.786475" lon="-2.194483"><ele>159.72</ele><time>2011-03-02T10:00:18Z</time></trkpt><trkpt lat="51.786499" lon="-2.194445"><ele>159.72</ele><time>2011-03-02T10:00:21Z</time></trkpt><trkpt lat="51.786525" lon="-2.194402"><ele>161.16</ele><time>2011-03-02T10:00:25Z</time></trkpt><trkpt lat="51.786560" lon="-2.194278"><ele>164.04</ele><time>2011-03-02T10:00:35Z</time></trkpt><trkpt lat="51.786638" lon="-2.194100"><ele>166.93</ele><time>2011-03-02T10:00:46Z</time></trkpt><trkpt lat="51.786772" lon="-2.193897"><ele>161.16</ele><time>2011-03-02T10:00:59Z</time></trkpt><trkpt lat="51.786892" lon="-2.193646"><ele>161.16</ele><time>2011-03-02T10:01:16Z</time></trkpt><trkpt lat="51.786926" lon="-2.193529"><ele>164.04</ele><time>2011-03-02T10:01:24Z</time></trkpt><trkpt lat="51.786926" lon="-2.193473"><ele>165.48</ele><time>2011-03-02T10:01:31Z</time></trkpt><trkpt lat="51.786958" lon="-2.193497"><ele>164.04</ele><time>2011-03-02T10:01:34Z</time></trkpt><trkpt lat="51.787156" lon="-2.193597"><ele>168.37</ele><time>2011-03-02T10:01:50Z</time></trkpt><trkpt lat="51.787291" lon="-2.193710"><ele>173.17</ele><time>2011-03-02T10:02:02Z</time></trkpt><trkpt lat="51.787302" lon="-2.193753"><ele>164.04</ele><time>2011-03-02T10:02:10Z</time></trkpt><trkpt lat="51.787432" lon="-2.193848"><ele>161.64</ele><time>2011-03-02T10:02:24Z</time></trkpt><trkpt lat="51.787613" lon="-2.193955"><ele>161.64</ele><time>2011-03-02T10:02:42Z</time></trkpt><trkpt lat="51.787758" lon="-2.194042"><ele>161.64</ele><time>2011-03-02T10:02:57Z</time></trkpt><trkpt lat="51.787808" lon="-2.194084"><ele>161.64</ele><time>2011-03-02T10:03:03Z</time></trkpt><trkpt lat="51.788040" lon="-2.194204"><ele>161.64</ele><time>2011-03-02T10:03:22Z</time></trkpt><trkpt lat="51.788176" lon="-2.194312"><ele>162.60</ele><time>2011-03-02T10:03:37Z</time></trkpt><trkpt lat="51.788366" lon="-2.194435"><ele>163.56</ele><time>2011-03-02T10:03:54Z</time></trkpt><trkpt lat="51.788467" lon="-2.194485"><ele>164.04</ele><time>2011-03-02T10:04:06Z</time></trkpt><trkpt lat="51.788513" lon="-2.194516"><ele>164.52</ele><time>2011-03-02T10:04:10Z</time></trkpt><trkpt lat="51.788745" lon="-2.194669"><ele>166.93</ele><time>2011-03-02T10:04:32Z</time></trkpt><trkpt lat="51.788787" lon="-2.194754"><ele>168.37</ele><time>2011-03-02T10:04:39Z</time></trkpt><trkpt lat="51.788921" lon="-2.194839"><ele>170.77</ele><time>2011-03-02T10:04:55Z</time></trkpt><trkpt lat="51.789089" lon="-2.194899"><ele>172.69</ele><time>2011-03-02T10:05:13Z</time></trkpt><trkpt lat="51.789301" lon="-2.194880"><ele>172.21</ele><time>2011-03-02T10:05:30Z</time></trkpt><trkpt lat="51.789405" lon="-2.194939"><ele>175.10</ele><time>2011-03-02T10:05:44Z</time></trkpt><trkpt lat="51.789620" lon="-2.194819"><ele>173.17</ele><time>2011-03-02T10:06:00Z</time></trkpt><trkpt lat="51.789643" lon="-2.194810"><ele>173.17</ele><time>2011-03-02T10:06:02Z</time></trkpt><trkpt lat="51.789786" lon="-2.194816"><ele>170.77</ele><time>2011-03-02T10:06:17Z</time></trkpt><trkpt lat="51.789940" lon="-2.194891"><ele>174.62</ele><time>2011-03-02T10:06:33Z</time></trkpt><trkpt lat="51.790153" lon="-2.194998"><ele>177.98</ele><time>2011-03-02T10:06:51Z</time></trkpt><trkpt lat="51.790223" lon="-2.195028"><ele>179.90</ele><time>2011-03-02T10:07:01Z</time></trkpt><trkpt lat="51.790370" lon="-2.195069"><ele>180.87</ele><time>2011-03-02T10:07:18Z</time></trkpt><trkpt lat="51.790498" lon="-2.195114"><ele>185.67</ele><time>2011-03-02T10:07:33Z</time></trkpt><trkpt lat="51.790650" lon="-2.195130"><ele>189.52</ele><time>2011-03-02T10:07:48Z</time></trkpt><trkpt lat="51.790777" lon="-2.195133"><ele>190.48</ele><time>2011-03-02T10:08:01Z</time></trkpt><trkpt lat="51.790922" lon="-2.195136"><ele>193.84</ele><time>2011-03-02T10:08:18Z</time></trkpt><trkpt lat="51.791072" lon="-2.195138"><ele>193.36</ele><time>2011-03-02T10:08:33Z</time></trkpt><trkpt lat="51.791236" lon="-2.195191"><ele>192.40</ele><time>2011-03-02T10:08:50Z</time></trkpt><trkpt lat="51.791430" lon="-2.195228"><ele>194.80</ele><time>2011-03-02T10:09:09Z</time></trkpt><trkpt lat="51.791662" lon="-2.195208"><ele>191.92</ele><time>2011-03-02T10:09:28Z</time></trkpt><trkpt lat="51.791796" lon="-2.195163"><ele>191.44</ele><time>2011-03-02T10:09:44Z</time></trkpt><trkpt lat="51.791935" lon="-2.195087"><ele>189.04</ele><time>2011-03-02T10:10:00Z</time></trkpt><trkpt lat="51.792059" lon="-2.195073"><ele>187.11</ele><time>2011-03-02T10:10:15Z</time></trkpt><trkpt lat="51.792257" lon="-2.195010"><ele>187.11</ele><time>2011-03-02T10:10:32Z</time></trkpt><trkpt lat="51.792368" lon="-2.194908"><ele>189.04</ele><time>2011-03-02T10:10:46Z</time></trkpt><trkpt lat="51.792377" lon="-2.194850"><ele>190.00</ele><time>2011-03-02T10:10:49Z</time></trkpt><trkpt lat="51.792437" lon="-2.194650"><ele>192.88</ele><time>2011-03-02T10:11:03Z</time></trkpt><trkpt lat="51.792497" lon="-2.194518"><ele>197.21</ele><time>2011-03-02T10:11:14Z</time></trkpt><trkpt lat="51.792523" lon="-2.194391"><ele>200.09</ele><time>2011-03-02T10:11:22Z</time></trkpt><trkpt lat="51.792536" lon="-2.194265"><ele>202.49</ele><time>2011-03-02T10:11:30Z</time></trkpt><trkpt lat="51.792574" lon="-2.194031"><ele>207.30</ele><time>2011-03-02T10:11:45Z</time></trkpt><trkpt lat="51.792614" lon="-2.193823"><ele>209.70</ele><time>2011-03-02T10:11:59Z</time></trkpt><trkpt lat="51.792610" lon="-2.193616"><ele>207.78</ele><time>2011-03-02T10:12:14Z</time></trkpt><trkpt lat="51.792712" lon="-2.193292"><ele>206.34</ele><time>2011-03-02T10:12:35Z</time></trkpt><trkpt lat="51.792794" lon="-2.193219"><ele>205.38</ele><time>2011-03-02T10:12:47Z</time></trkpt><trkpt lat="51.792915" lon="-2.193056"><ele>207.30</ele><time>2011-03-02T10:13:03Z</time></trkpt><trkpt lat="51.793007" lon="-2.192913"><ele>207.78</ele><time>2011-03-02T10:13:18Z</time></trkpt><trkpt lat="51.793119" lon="-2.192799"><ele>203.46</ele><time>2011-03-02T10:13:35Z</time></trkpt><trkpt lat="51.793286" lon="-2.192755"><ele>200.57</ele><time>2011-03-02T10:13:51Z</time></trkpt><trkpt lat="51.793466" lon="-2.192715"><ele>197.69</ele><time>2011-03-02T10:14:10Z</time></trkpt><trkpt lat="51.793623" lon="-2.192680"><ele>198.17</ele><time>2011-03-02T10:14:26Z</time></trkpt><trkpt lat="51.793788" lon="-2.192651"><ele>202.49</ele><time>2011-03-02T10:14:43Z</time></trkpt><trkpt lat="51.793894" lon="-2.192610"><ele>204.42</ele><time>2011-03-02T10:14:57Z</time></trkpt><trkpt lat="51.794076" lon="-2.192545"><ele>209.70</ele><time>2011-03-02T10:15:13Z</time></trkpt><trkpt lat="51.794224" lon="-2.192497"><ele>213.07</ele><time>2011-03-02T10:15:29Z</time></trkpt><trkpt lat="51.794386" lon="-2.192437"><ele>216.43</ele><time>2011-03-02T10:15:42Z</time></trkpt><trkpt lat="51.794544" lon="-2.192270"><ele>211.15</ele><time>2011-03-02T10:16:00Z</time></trkpt><trkpt lat="51.794626" lon="-2.192211"><ele>208.26</ele><time>2011-03-02T10:16:12Z</time></trkpt><trkpt lat="51.794831" lon="-2.192070"><ele>205.86</ele><time>2011-03-02T10:16:31Z</time></trkpt><trkpt lat="51.795032" lon="-2.191903"><ele>203.94</ele><time>2011-03-02T10:16:53Z</time></trkpt><trkpt lat="51.795221" lon="-2.191743"><ele>203.46</ele><time>2011-03-02T10:17:12Z</time></trkpt><trkpt lat="51.795431" lon="-2.191583"><ele>203.94</ele><time>2011-03-02T10:17:35Z</time></trkpt><trkpt lat="51.795613" lon="-2.191283"><ele>204.42</ele><time>2011-03-02T10:17:57Z</time></trkpt><trkpt lat="51.795743" lon="-2.191052"><ele>204.90</ele><time>2011-03-02T10:18:15Z</time></trkpt><trkpt lat="51.795907" lon="-2.190856"><ele>204.90</ele><time>2011-03-02T10:18:33Z</time></trkpt><trkpt lat="51.796012" lon="-2.190653"><ele>202.01</ele><time>2011-03-02T10:18:50Z</time></trkpt><trkpt lat="51.796079" lon="-2.190586"><ele>202.49</ele><time>2011-03-02T10:18:58Z</time></trkpt><trkpt lat="51.796136" lon="-2.190515"><ele>202.49</ele><time>2011-03-02T10:19:13Z</time></trkpt><trkpt lat="51.796240" lon="-2.190389"><ele>201.53</ele><time>2011-03-02T10:19:26Z</time></trkpt><trkpt lat="51.796393" lon="-2.190213"><ele>201.05</ele><time>2011-03-02T10:19:42Z</time></trkpt><trkpt lat="51.796571" lon="-2.189981"><ele>200.09</ele><time>2011-03-02T10:20:02Z</time></trkpt><trkpt lat="51.796719" lon="-2.189761"><ele>200.57</ele><time>2011-03-02T10:20:21Z</time></trkpt><trkpt lat="51.796905" lon="-2.189533"><ele>200.09</ele><time>2011-03-02T10:20:41Z</time></trkpt><trkpt lat="51.797063" lon="-2.189317"><ele>198.17</ele><time>2011-03-02T10:21:02Z</time></trkpt><trkpt lat="51.797188" lon="-2.189170"><ele>196.25</ele><time>2011-03-02T10:21:19Z</time></trkpt><trkpt lat="51.797285" lon="-2.189035"><ele>193.36</ele><time>2011-03-02T10:21:34Z</time></trkpt><trkpt lat="51.797395" lon="-2.188947"><ele>191.44</ele><time>2011-03-02T10:21:49Z</time></trkpt><trkpt lat="51.797527" lon="-2.188897"><ele>190.00</ele><time>2011-03-02T10:22:03Z</time></trkpt><trkpt lat="51.797613" lon="-2.188827"><ele>190.00</ele><time>2011-03-02T10:22:12Z</time></trkpt><trkpt lat="51.797746" lon="-2.188746"><ele>190.48</ele><time>2011-03-02T10:22:28Z</time></trkpt><trkpt lat="51.797759" lon="-2.188755"><ele>190.48</ele><time>2011-03-02T10:22:30Z</time></trkpt><trkpt lat="51.797909" lon="-2.188840"><ele>188.56</ele><time>2011-03-02T10:22:49Z</time></trkpt><trkpt lat="51.798044" lon="-2.188892"><ele>188.56</ele><time>2011-03-02T10:23:05Z</time></trkpt><trkpt lat="51.798099" lon="-2.188965"><ele>189.04</ele><time>2011-03-02T10:23:18Z</time></trkpt><trkpt lat="51.798178" lon="-2.189056"><ele>191.92</ele><time>2011-03-02T10:23:33Z</time></trkpt><trkpt lat="51.798280" lon="-2.189145"><ele>191.44</ele><time>2011-03-02T10:23:47Z</time></trkpt><trkpt lat="51.798403" lon="-2.189220"><ele>190.48</ele><time>2011-03-02T10:24:02Z</time></trkpt><trkpt lat="51.798473" lon="-2.189268"><ele>190.00</ele><time>2011-03-02T10:24:10Z</time></trkpt><trkpt lat="51.798622" lon="-2.189416"><ele>190.00</ele><time>2011-03-02T10:24:25Z</time></trkpt><trkpt lat="51.798748" lon="-2.189483"><ele>192.88</ele><time>2011-03-02T10:24:40Z</time></trkpt><trkpt lat="51.798886" lon="-2.189558"><ele>192.40</ele><time>2011-03-02T10:24:53Z</time></trkpt><trkpt lat="51.799057" lon="-2.189667"><ele>191.92</ele><time>2011-03-02T10:25:11Z</time></trkpt><trkpt lat="51.799208" lon="-2.189736"><ele>190.00</ele><time>2011-03-02T10:25:25Z</time></trkpt><trkpt lat="51.799373" lon="-2.189854"><ele>187.59</ele><time>2011-03-02T10:25:41Z</time></trkpt><trkpt lat="51.799569" lon="-2.190076"><ele>188.56</ele><time>2011-03-02T10:26:04Z</time></trkpt><trkpt lat="51.799675" lon="-2.190201"><ele>186.15</ele><time>2011-03-02T10:26:17Z</time></trkpt><trkpt lat="51.799741" lon="-2.190335"><ele>181.35</ele><time>2011-03-02T10:26:28Z</time></trkpt><trkpt lat="51.799867" lon="-2.190524"><ele>176.54</ele><time>2011-03-02T10:26:44Z</time></trkpt><trkpt lat="51.799975" lon="-2.190647"><ele>176.06</ele><time>2011-03-02T10:26:59Z</time></trkpt><trkpt lat="51.800140" lon="-2.190832"><ele>173.66</ele><time>2011-03-02T10:27:17Z</time></trkpt><trkpt lat="51.800168" lon="-2.190860"><ele>173.66</ele><time>2011-03-02T10:27:20Z</time></trkpt><trkpt lat="51.800274" lon="-2.190919"><ele>175.10</ele><time>2011-03-02T10:27:35Z</time></trkpt><trkpt lat="51.800255" lon="-2.190964"><ele>173.17</ele><time>2011-03-02T10:27:58Z</time></trkpt><trkpt lat="51.800263" lon="-2.190966"><ele>173.17</ele><time>2011-03-02T10:29:52Z</time></trkpt><trkpt lat="51.800430" lon="-2.190932"><ele>175.10</ele><time>2011-03-02T10:30:05Z</time></trkpt><trkpt lat="51.800551" lon="-2.190877"><ele>175.10</ele><time>2011-03-02T10:30:18Z</time></trkpt><trkpt lat="51.800618" lon="-2.190801"><ele>176.06</ele><time>2011-03-02T10:30:32Z</time></trkpt><trkpt lat="51.800655" lon="-2.190755"><ele>176.54</ele><time>2011-03-02T10:30:46Z</time></trkpt><trkpt lat="51.800705" lon="-2.190744"><ele>175.58</ele><time>2011-03-02T10:31:08Z</time></trkpt><trkpt lat="51.800801" lon="-2.190707"><ele>176.06</ele><time>2011-03-02T10:31:22Z</time></trkpt><trkpt lat="51.800904" lon="-2.190699"><ele>175.58</ele><time>2011-03-02T10:31:36Z</time></trkpt><trkpt lat="51.800914" lon="-2.190700"><ele>176.06</ele><time>2011-03-02T10:31:37Z</time></trkpt><trkpt lat="51.800930" lon="-2.190706"><ele>176.54</ele><time>2011-03-02T10:31:39Z</time></trkpt><trkpt lat="51.801010" lon="-2.190740"><ele>178.46</ele><time>2011-03-02T10:31:51Z</time></trkpt><trkpt lat="51.801164" lon="-2.190775"><ele>181.83</ele><time>2011-03-02T10:32:08Z</time></trkpt><trkpt lat="51.801223" lon="-2.190799"><ele>179.90</ele><time>2011-03-02T10:32:13Z</time></trkpt><trkpt lat="51.801258" lon="-2.190822"><ele>179.42</ele><time>2011-03-02T10:32:18Z</time></trkpt><trkpt lat="51.801347" lon="-2.190872"><ele>180.38</ele><time>2011-03-02T10:32:28Z</time></trkpt><trkpt lat="51.801423" lon="-2.190936"><ele>180.87</ele><time>2011-03-02T10:32:37Z</time></trkpt><trkpt lat="51.801448" lon="-2.190957"><ele>180.87</ele><time>2011-03-02T10:32:40Z</time></trkpt><trkpt lat="51.801470" lon="-2.190991"><ele>180.38</ele><time>2011-03-02T10:32:43Z</time></trkpt><trkpt lat="51.801506" lon="-2.191044"><ele>180.38</ele><time>2011-03-02T10:32:48Z</time></trkpt><trkpt lat="51.801582" lon="-2.191141"><ele>182.31</ele><time>2011-03-02T10:33:01Z</time></trkpt><trkpt lat="51.801689" lon="-2.191274"><ele>180.38</ele><time>2011-03-02T10:33:18Z</time></trkpt><trkpt lat="51.801806" lon="-2.191461"><ele>181.35</ele><time>2011-03-02T10:33:39Z</time></trkpt><trkpt lat="51.801861" lon="-2.191558"><ele>183.27</ele><time>2011-03-02T10:33:48Z</time></trkpt><trkpt lat="51.801967" lon="-2.191617"><ele>186.63</ele><time>2011-03-02T10:34:01Z</time></trkpt><trkpt lat="51.802070" lon="-2.191688"><ele>190.96</ele><time>2011-03-02T10:34:17Z</time></trkpt><trkpt lat="51.802175" lon="-2.191697"><ele>195.28</ele><time>2011-03-02T10:34:30Z</time></trkpt><trkpt lat="51.802288" lon="-2.191743"><ele>198.17</ele><time>2011-03-02T10:34:45Z</time></trkpt><trkpt lat="51.802342" lon="-2.191772"><ele>202.49</ele><time>2011-03-02T10:34:58Z</time></trkpt><trkpt lat="51.802415" lon="-2.191843"><ele>202.98</ele><time>2011-03-02T10:35:13Z</time></trkpt><trkpt lat="51.802498" lon="-2.191811"><ele>205.86</ele><time>2011-03-02T10:35:28Z</time></trkpt><trkpt lat="51.802687" lon="-2.191811"><ele>208.74</ele><time>2011-03-02T10:35:48Z</time></trkpt><trkpt lat="51.802864" lon="-2.191752"><ele>208.74</ele><time>2011-03-02T10:36:05Z</time></trkpt><trkpt lat="51.802936" lon="-2.191706"><ele>207.30</ele><time>2011-03-02T10:36:13Z</time></trkpt><trkpt lat="51.803078" lon="-2.191578"><ele>205.38</ele><time>2011-03-02T10:36:28Z</time></trkpt><trkpt lat="51.803177" lon="-2.191490"><ele>205.38</ele><time>2011-03-02T10:36:37Z</time></trkpt><trkpt lat="51.803251" lon="-2.191362"><ele>204.90</ele><time>2011-03-02T10:36:50Z</time></trkpt><trkpt lat="51.803257" lon="-2.191335"><ele>206.34</ele><time>2011-03-02T10:36:52Z</time></trkpt><trkpt lat="51.803385" lon="-2.191114"><ele>212.11</ele><time>2011-03-02T10:37:08Z</time></trkpt><trkpt lat="51.803547" lon="-2.190871"><ele>216.91</ele><time>2011-03-02T10:37:25Z</time></trkpt><trkpt lat="51.803696" lon="-2.190644"><ele>214.03</ele><time>2011-03-02T10:37:42Z</time></trkpt><trkpt lat="51.803880" lon="-2.190532"><ele>213.07</ele><time>2011-03-02T10:38:01Z</time></trkpt><trkpt lat="51.803978" lon="-2.190415"><ele>213.55</ele><time>2011-03-02T10:38:15Z</time></trkpt><trkpt lat="51.804107" lon="-2.190289"><ele>217.88</ele><time>2011-03-02T10:38:33Z</time></trkpt><trkpt lat="51.804269" lon="-2.190132"><ele>221.72</ele><time>2011-03-02T10:38:49Z</time></trkpt><trkpt lat="51.804343" lon="-2.190021"><ele>222.68</ele><time>2011-03-02T10:38:58Z</time></trkpt><trkpt lat="51.804419" lon="-2.189973"><ele>221.72</ele><time>2011-03-02T10:39:11Z</time></trkpt><trkpt lat="51.804467" lon="-2.189910"><ele>221.24</ele><time>2011-03-02T10:39:18Z</time></trkpt><trkpt lat="51.804482" lon="-2.189924"><ele>220.76</ele><time>2011-03-02T10:39:21Z</time></trkpt><trkpt lat="51.804501" lon="-2.190003"><ele>220.76</ele><time>2011-03-02T10:39:28Z</time></trkpt><trkpt lat="51.804521" lon="-2.190214"><ele>221.24</ele><time>2011-03-02T10:39:45Z</time></trkpt><trkpt lat="51.804514" lon="-2.190329"><ele>220.76</ele><time>2011-03-02T10:39:57Z</time></trkpt><trkpt lat="51.804572" lon="-2.190440"><ele>220.28</ele><time>2011-03-02T10:40:14Z</time></trkpt><trkpt lat="51.804712" lon="-2.190369"><ele>219.32</ele><time>2011-03-02T10:40:30Z</time></trkpt><trkpt lat="51.804862" lon="-2.190296"><ele>221.24</ele><time>2011-03-02T10:40:50Z</time></trkpt><trkpt lat="51.805000" lon="-2.190197"><ele>220.76</ele><time>2011-03-02T10:41:06Z</time></trkpt><trkpt lat="51.805099" lon="-2.190059"><ele>225.09</ele><time>2011-03-02T10:41:23Z</time></trkpt><trkpt lat="51.805214" lon="-2.189860"><ele>225.57</ele><time>2011-03-02T10:41:43Z</time></trkpt><trkpt lat="51.805346" lon="-2.189685"><ele>228.45</ele><time>2011-03-02T10:42:02Z</time></trkpt><trkpt lat="51.805512" lon="-2.189573"><ele>228.45</ele><time>2011-03-02T10:42:22Z</time></trkpt><trkpt lat="51.805598" lon="-2.189403"><ele>229.89</ele><time>2011-03-02T10:42:40Z</time></trkpt><trkpt lat="51.805751" lon="-2.189245"><ele>227.49</ele><time>2011-03-02T10:42:57Z</time></trkpt><trkpt lat="51.805863" lon="-2.189115"><ele>228.93</ele><time>2011-03-02T10:43:13Z</time></trkpt><trkpt lat="51.805996" lon="-2.188951"><ele>229.89</ele><time>2011-03-02T10:43:33Z</time></trkpt><trkpt lat="51.806128" lon="-2.188851"><ele>227.49</ele><time>2011-03-02T10:43:49Z</time></trkpt><trkpt lat="51.806274" lon="-2.188741"><ele>228.45</ele><time>2011-03-02T10:44:07Z</time></trkpt><trkpt lat="51.806351" lon="-2.188676"><ele>229.41</ele><time>2011-03-02T10:44:24Z</time></trkpt><trkpt lat="51.806337" lon="-2.188645"><ele>229.41</ele><time>2011-03-02T10:44:39Z</time></trkpt><trkpt lat="51.806219" lon="-2.188763"><ele>231.33</ele><time>2011-03-02T10:45:00Z</time></trkpt><trkpt lat="51.806269" lon="-2.188654"><ele>230.37</ele><time>2011-03-02T10:46:14Z</time></trkpt><trkpt lat="51.806324" lon="-2.188648"><ele>230.37</ele><time>2011-03-02T10:46:34Z</time></trkpt><trkpt lat="51.806366" lon="-2.188600"><ele>230.85</ele><time>2011-03-02T10:47:21Z</time></trkpt><trkpt lat="51.806338" lon="-2.188568"><ele>228.45</ele><time>2011-03-02T10:47:58Z</time></trkpt><trkpt lat="51.806472" lon="-2.188397"><ele>227.97</ele><time>2011-03-02T10:48:25Z</time></trkpt><trkpt lat="51.806496" lon="-2.188372"><ele>227.49</ele><time>2011-03-02T10:48:28Z</time></trkpt><trkpt lat="51.806668" lon="-2.188179"><ele>227.01</ele><time>2011-03-02T10:48:44Z</time></trkpt><trkpt lat="51.806870" lon="-2.187969"><ele>228.45</ele><time>2011-03-02T10:49:01Z</time></trkpt><trkpt lat="51.806994" lon="-2.187799"><ele>230.85</ele><time>2011-03-02T10:49:13Z</time></trkpt><trkpt lat="51.807165" lon="-2.187483"><ele>233.26</ele><time>2011-03-02T10:49:31Z</time></trkpt><trkpt lat="51.807264" lon="-2.187226"><ele>238.06</ele><time>2011-03-02T10:49:45Z</time></trkpt><trkpt lat="51.807349" lon="-2.186960"><ele>242.87</ele><time>2011-03-02T10:50:00Z</time></trkpt><trkpt lat="51.807389" lon="-2.186906"><ele>243.83</ele><time>2011-03-02T10:50:03Z</time></trkpt><trkpt lat="51.807530" lon="-2.186658"><ele>246.72</ele><time>2011-03-02T10:50:17Z</time></trkpt><trkpt lat="51.807745" lon="-2.186434"><ele>244.31</ele><time>2011-03-02T10:50:29Z</time></trkpt><trkpt lat="51.807827" lon="-2.186256"><ele>242.87</ele><time>2011-03-02T10:50:41Z</time></trkpt><trkpt lat="51.807919" lon="-2.186143"><ele>243.35</ele><time>2011-03-02T10:50:51Z</time></trkpt><trkpt lat="51.808051" lon="-2.186018"><ele>244.79</ele><time>2011-03-02T10:51:02Z</time></trkpt><trkpt lat="51.808180" lon="-2.185877"><ele>242.87</ele><time>2011-03-02T10:51:11Z</time></trkpt><trkpt lat="51.808290" lon="-2.185725"><ele>239.51</ele><time>2011-03-02T10:51:25Z</time></trkpt><trkpt lat="51.808330" lon="-2.185756"><ele>239.02</ele><time>2011-03-02T10:51:42Z</time></trkpt><trkpt lat="51.808392" lon="-2.185891"><ele>242.39</ele><time>2011-03-02T10:51:59Z</time></trkpt><trkpt lat="51.808437" lon="-2.185982"><ele>248.64</ele><time>2011-03-02T10:52:15Z</time></trkpt><trkpt lat="51.808509" lon="-2.186061"><ele>252.48</ele><time>2011-03-02T10:52:29Z</time></trkpt><trkpt lat="51.808628" lon="-2.186122"><ele>252.96</ele><time>2011-03-02T10:52:46Z</time></trkpt><trkpt lat="51.808742" lon="-2.185981"><ele>252.00</ele><time>2011-03-02T10:53:01Z</time></trkpt><trkpt lat="51.808876" lon="-2.185760"><ele>252.00</ele><time>2011-03-02T10:53:22Z</time></trkpt><trkpt lat="51.808975" lon="-2.185649"><ele>252.00</ele><time>2011-03-02T10:53:36Z</time></trkpt><trkpt lat="51.809044" lon="-2.185632"><ele>253.93</ele><time>2011-03-02T10:53:52Z</time></trkpt><trkpt lat="51.809043" lon="-2.185618"><ele>254.41</ele><time>2011-03-02T10:54:53Z</time></trkpt><trkpt lat="51.809044" lon="-2.185602"><ele>251.52</ele><time>2011-03-02T10:55:25Z</time></trkpt><trkpt lat="51.809039" lon="-2.185595"><ele>251.04</ele><time>2011-03-02T10:57:11Z</time></trkpt><trkpt lat="51.809043" lon="-2.185595"><ele>252.48</ele><time>2011-03-02T10:58:38Z</time></trkpt><trkpt lat="51.809060" lon="-2.185620"><ele>254.41</ele><time>2011-03-02T11:04:07Z</time></trkpt><trkpt lat="51.809013" lon="-2.185509"><ele>252.48</ele><time>2011-03-02T11:06:40Z</time></trkpt><trkpt lat="51.809019" lon="-2.185623"><ele>255.37</ele><time>2011-03-02T11:09:48Z</time></trkpt><trkpt lat="51.809144" lon="-2.185641"><ele>254.41</ele><time>2011-03-02T11:10:05Z</time></trkpt><trkpt lat="51.809166" lon="-2.185621"><ele>254.89</ele><time>2011-03-02T11:10:10Z</time></trkpt><trkpt lat="51.809312" lon="-2.185455"><ele>251.04</ele><time>2011-03-02T11:10:26Z</time></trkpt><trkpt lat="51.809421" lon="-2.185249"><ele>251.52</ele><time>2011-03-02T11:10:41Z</time></trkpt><trkpt lat="51.809444" lon="-2.185209"><ele>251.04</ele><time>2011-03-02T11:10:44Z</time></trkpt><trkpt lat="51.809458" lon="-2.185189"><ele>250.56</ele><time>2011-03-02T11:10:46Z</time></trkpt><trkpt lat="51.809583" lon="-2.184998"><ele>246.23</ele><time>2011-03-02T11:11:04Z</time></trkpt><trkpt lat="51.809692" lon="-2.184763"><ele>250.56</ele><time>2011-03-02T11:11:22Z</time></trkpt><trkpt lat="51.809799" lon="-2.184578"><ele>252.96</ele><time>2011-03-02T11:11:37Z</time></trkpt><trkpt lat="51.809934" lon="-2.184391"><ele>254.41</ele><time>2011-03-02T11:11:55Z</time></trkpt><trkpt lat="51.809959" lon="-2.184352"><ele>255.37</ele><time>2011-03-02T11:12:00Z</time></trkpt><trkpt lat="51.810052" lon="-2.184180"><ele>255.37</ele><time>2011-03-02T11:12:14Z</time></trkpt><trkpt lat="51.810192" lon="-2.183976"><ele>254.41</ele><time>2011-03-02T11:12:32Z</time></trkpt><trkpt lat="51.810311" lon="-2.183827"><ele>255.37</ele><time>2011-03-02T11:12:46Z</time></trkpt><trkpt lat="51.810418" lon="-2.183644"><ele>254.89</ele><time>2011-03-02T11:13:03Z</time></trkpt><trkpt lat="51.810580" lon="-2.183576"><ele>251.52</ele><time>2011-03-02T11:13:23Z</time></trkpt><trkpt lat="51.810579" lon="-2.183599"><ele>251.04</ele><time>2011-03-02T11:13:31Z</time></trkpt><trkpt lat="51.810605" lon="-2.183645"><ele>251.04</ele><time>2011-03-02T11:13:35Z</time></trkpt><trkpt lat="51.810607" lon="-2.183949"><ele>251.52</ele><time>2011-03-02T11:13:55Z</time></trkpt><trkpt lat="51.810602" lon="-2.183959"><ele>251.52</ele><time>2011-03-02T11:13:56Z</time></trkpt><trkpt lat="51.810491" lon="-2.184093"><ele>252.00</ele><time>2011-03-02T11:14:11Z</time></trkpt><trkpt lat="51.810397" lon="-2.184256"><ele>252.48</ele><time>2011-03-02T11:14:25Z</time></trkpt><trkpt lat="51.810323" lon="-2.184478"><ele>252.96</ele><time>2011-03-02T11:14:41Z</time></trkpt><trkpt lat="51.810267" lon="-2.184713"><ele>255.85</ele><time>2011-03-02T11:14:55Z</time></trkpt><trkpt lat="51.810209" lon="-2.184918"><ele>257.29</ele><time>2011-03-02T11:15:10Z</time></trkpt><trkpt lat="51.810115" lon="-2.185136"><ele>258.25</ele><time>2011-03-02T11:15:27Z</time></trkpt><trkpt lat="51.810006" lon="-2.185324"><ele>256.33</ele><time>2011-03-02T11:15:45Z</time></trkpt><trkpt lat="51.809951" lon="-2.185500"><ele>255.37</ele><time>2011-03-02T11:16:00Z</time></trkpt><trkpt lat="51.809904" lon="-2.185641"><ele>255.37</ele><time>2011-03-02T11:16:12Z</time></trkpt><trkpt lat="51.809801" lon="-2.185866"><ele>254.89</ele><time>2011-03-02T11:16:29Z</time></trkpt><trkpt lat="51.809701" lon="-2.186108"><ele>253.93</ele><time>2011-03-02T11:16:47Z</time></trkpt><trkpt lat="51.809595" lon="-2.186334"><ele>253.44</ele><time>2011-03-02T11:17:03Z</time></trkpt><trkpt lat="51.809502" lon="-2.186559"><ele>253.44</ele><time>2011-03-02T11:17:20Z</time></trkpt><trkpt lat="51.809401" lon="-2.186741"><ele>254.89</ele><time>2011-03-02T11:17:36Z</time></trkpt><trkpt lat="51.809327" lon="-2.186944"><ele>254.89</ele><time>2011-03-02T11:17:52Z</time></trkpt><trkpt lat="51.809215" lon="-2.187187"><ele>255.37</ele><time>2011-03-02T11:18:11Z</time></trkpt><trkpt lat="51.809119" lon="-2.187404"><ele>255.85</ele><time>2011-03-02T11:18:27Z</time></trkpt><trkpt lat="51.809054" lon="-2.187586"><ele>256.81</ele><time>2011-03-02T11:18:42Z</time></trkpt><trkpt lat="51.808986" lon="-2.187699"><ele>258.73</ele><time>2011-03-02T11:18:52Z</time></trkpt><trkpt lat="51.808897" lon="-2.187893"><ele>259.21</ele><time>2011-03-02T11:19:10Z</time></trkpt><trkpt lat="51.808795" lon="-2.188072"><ele>259.69</ele><time>2011-03-02T11:19:26Z</time></trkpt><trkpt lat="51.808721" lon="-2.188265"><ele>260.17</ele><time>2011-03-02T11:19:40Z</time></trkpt><trkpt lat="51.808636" lon="-2.188453"><ele>260.65</ele><time>2011-03-02T11:19:56Z</time></trkpt><trkpt lat="51.808554" lon="-2.188615"><ele>261.14</ele><time>2011-03-02T11:20:11Z</time></trkpt><trkpt lat="51.808492" lon="-2.188754"><ele>262.58</ele><time>2011-03-02T11:20:26Z</time></trkpt><trkpt lat="51.808407" lon="-2.188990"><ele>264.98</ele><time>2011-03-02T11:20:44Z</time></trkpt><trkpt lat="51.808347" lon="-2.189147"><ele>267.86</ele><time>2011-03-02T11:20:59Z</time></trkpt><trkpt lat="51.808308" lon="-2.189267"><ele>267.86</ele><time>2011-03-02T11:21:12Z</time></trkpt><trkpt lat="51.808303" lon="-2.189338"><ele>267.38</ele><time>2011-03-02T11:21:19Z</time></trkpt><trkpt lat="51.808268" lon="-2.189558"><ele>267.38</ele><time>2011-03-02T11:21:35Z</time></trkpt><trkpt lat="51.808251" lon="-2.189625"><ele>267.38</ele><time>2011-03-02T11:21:41Z</time></trkpt><trkpt lat="51.808169" lon="-2.189858"><ele>266.90</ele><time>2011-03-02T11:22:00Z</time></trkpt><trkpt lat="51.808082" lon="-2.190058"><ele>268.83</ele><time>2011-03-02T11:22:18Z</time></trkpt><trkpt lat="51.808051" lon="-2.190215"><ele>268.83</ele><time>2011-03-02T11:22:32Z</time></trkpt><trkpt lat="51.807988" lon="-2.190388"><ele>268.83</ele><time>2011-03-02T11:22:46Z</time></trkpt><trkpt lat="51.807925" lon="-2.190622"><ele>268.83</ele><time>2011-03-02T11:23:02Z</time></trkpt><trkpt lat="51.807881" lon="-2.190912"><ele>269.79</ele><time>2011-03-02T11:23:21Z</time></trkpt><trkpt lat="51.807775" lon="-2.191152"><ele>269.79</ele><time>2011-03-02T11:23:40Z</time></trkpt><trkpt lat="51.807681" lon="-2.191319"><ele>271.23</ele><time>2011-03-02T11:23:55Z</time></trkpt><trkpt lat="51.807586" lon="-2.191548"><ele>274.11</ele><time>2011-03-02T11:24:14Z</time></trkpt><trkpt lat="51.807544" lon="-2.191709"><ele>276.04</ele><time>2011-03-02T11:24:29Z</time></trkpt><trkpt lat="51.807543" lon="-2.191763"><ele>276.04</ele><time>2011-03-02T11:24:33Z</time></trkpt><trkpt lat="51.807528" lon="-2.191986"><ele>276.52</ele><time>2011-03-02T11:24:49Z</time></trkpt><trkpt lat="51.807508" lon="-2.192181"><ele>277.96</ele><time>2011-03-02T11:25:04Z</time></trkpt><trkpt lat="51.807503" lon="-2.192274"><ele>277.96</ele><time>2011-03-02T11:25:20Z</time></trkpt><trkpt lat="51.807490" lon="-2.192376"><ele>278.44</ele><time>2011-03-02T11:25:28Z</time></trkpt><trkpt lat="51.807439" lon="-2.192459"><ele>279.40</ele><time>2011-03-02T11:25:43Z</time></trkpt><trkpt lat="51.807385" lon="-2.192498"><ele>281.32</ele><time>2011-03-02T11:25:58Z</time></trkpt><trkpt lat="51.807375" lon="-2.192519"><ele>281.32</ele><time>2011-03-02T11:26:16Z</time></trkpt><trkpt lat="51.807373" lon="-2.192517"><ele>281.80</ele><time>2011-03-02T11:27:23Z</time></trkpt><trkpt lat="51.807375" lon="-2.192510"><ele>280.84</ele><time>2011-03-02T11:29:24Z</time></trkpt><trkpt lat="51.807370" lon="-2.192514"><ele>280.36</ele><time>2011-03-02T11:31:08Z</time></trkpt><trkpt lat="51.807200" lon="-2.192405"><ele>278.92</ele><time>2011-03-02T11:31:24Z</time></trkpt><trkpt lat="51.807175" lon="-2.192379"><ele>279.40</ele><time>2011-03-02T11:31:27Z</time></trkpt><trkpt lat="51.806952" lon="-2.192336"><ele>277.96</ele><time>2011-03-02T11:31:46Z</time></trkpt><trkpt lat="51.806683" lon="-2.192257"><ele>276.04</ele><time>2011-03-02T11:32:08Z</time></trkpt><trkpt lat="51.806588" lon="-2.192228"><ele>273.15</ele><time>2011-03-02T11:32:24Z</time></trkpt><trkpt lat="51.806552" lon="-2.192262"><ele>271.71</ele><time>2011-03-02T11:32:29Z</time></trkpt><trkpt lat="51.806403" lon="-2.192418"><ele>269.31</ele><time>2011-03-02T11:32:46Z</time></trkpt><trkpt lat="51.806247" lon="-2.192515"><ele>266.42</ele><time>2011-03-02T11:33:05Z</time></trkpt><trkpt lat="51.806085" lon="-2.192538"><ele>264.98</ele><time>2011-03-02T11:33:22Z</time></trkpt><trkpt lat="51.805936" lon="-2.192564"><ele>263.54</ele><time>2011-03-02T11:33:42Z</time></trkpt><trkpt lat="51.805799" lon="-2.192650"><ele>262.58</ele><time>2011-03-02T11:34:00Z</time></trkpt><trkpt lat="51.805652" lon="-2.192770"><ele>259.69</ele><time>2011-03-02T11:34:19Z</time></trkpt><trkpt lat="51.805497" lon="-2.192852"><ele>256.33</ele><time>2011-03-02T11:34:38Z</time></trkpt><trkpt lat="51.805330" lon="-2.192988"><ele>253.93</ele><time>2011-03-02T11:34:57Z</time></trkpt><trkpt lat="51.805152" lon="-2.193011"><ele>251.04</ele><time>2011-03-02T11:35:17Z</time></trkpt><trkpt lat="51.804959" lon="-2.193008"><ele>248.64</ele><time>2011-03-02T11:35:37Z</time></trkpt><trkpt lat="51.804786" lon="-2.192981"><ele>245.75</ele><time>2011-03-02T11:35:55Z</time></trkpt><trkpt lat="51.804645" lon="-2.193026"><ele>245.27</ele><time>2011-03-02T11:36:13Z</time></trkpt><trkpt lat="51.804588" lon="-2.193059"><ele>245.27</ele><time>2011-03-02T11:36:30Z</time></trkpt><trkpt lat="51.804609" lon="-2.193082"><ele>245.27</ele><time>2011-03-02T11:36:47Z</time></trkpt><trkpt lat="51.804491" lon="-2.193127"><ele>247.20</ele><time>2011-03-02T11:37:31Z</time></trkpt><trkpt lat="51.804284" lon="-2.193247"><ele>249.60</ele><time>2011-03-02T11:37:51Z</time></trkpt><trkpt lat="51.804074" lon="-2.193436"><ele>254.41</ele><time>2011-03-02T11:38:13Z</time></trkpt><trkpt lat="51.804014" lon="-2.193575"><ele>252.00</ele><time>2011-03-02T11:38:29Z</time></trkpt><trkpt lat="51.803975" lon="-2.193646"><ele>251.52</ele><time>2011-03-02T11:38:35Z</time></trkpt><trkpt lat="51.803743" lon="-2.193751"><ele>246.72</ele><time>2011-03-02T11:38:58Z</time></trkpt><trkpt lat="51.803496" lon="-2.193872"><ele>245.27</ele><time>2011-03-02T11:39:23Z</time></trkpt><trkpt lat="51.803274" lon="-2.193985"><ele>244.79</ele><time>2011-03-02T11:39:46Z</time></trkpt><trkpt lat="51.803074" lon="-2.194159"><ele>244.31</ele><time>2011-03-02T11:40:08Z</time></trkpt><trkpt lat="51.802851" lon="-2.194354"><ele>244.79</ele><time>2011-03-02T11:40:33Z</time></trkpt><trkpt lat="51.802620" lon="-2.194585"><ele>244.31</ele><time>2011-03-02T11:40:58Z</time></trkpt><trkpt lat="51.802553" lon="-2.194666"><ele>245.27</ele><time>2011-03-02T11:41:10Z</time></trkpt><trkpt lat="51.802374" lon="-2.194940"><ele>240.95</ele><time>2011-03-02T11:41:33Z</time></trkpt><trkpt lat="51.802286" lon="-2.195127"><ele>239.51</ele><time>2011-03-02T11:41:48Z</time></trkpt><trkpt lat="51.802160" lon="-2.195276"><ele>240.95</ele><time>2011-03-02T11:42:04Z</time></trkpt><trkpt lat="51.802067" lon="-2.195320"><ele>241.91</ele><time>2011-03-02T11:42:19Z</time></trkpt><trkpt lat="51.801970" lon="-2.195537"><ele>240.95</ele><time>2011-03-02T11:42:37Z</time></trkpt><trkpt lat="51.801844" lon="-2.195716"><ele>243.35</ele><time>2011-03-02T11:42:56Z</time></trkpt><trkpt lat="51.801686" lon="-2.195910"><ele>246.23</ele><time>2011-03-02T11:43:14Z</time></trkpt><trkpt lat="51.801565" lon="-2.196002"><ele>247.20</ele><time>2011-03-02T11:43:26Z</time></trkpt><trkpt lat="51.801554" lon="-2.196008"><ele>247.20</ele><time>2011-03-02T11:43:27Z</time></trkpt><trkpt lat="51.801418" lon="-2.196126"><ele>247.20</ele><time>2011-03-02T11:43:43Z</time></trkpt><trkpt lat="51.801272" lon="-2.196292"><ele>250.08</ele><time>2011-03-02T11:44:00Z</time></trkpt><trkpt lat="51.801213" lon="-2.196358"><ele>251.04</ele><time>2011-03-02T11:44:08Z</time></trkpt><trkpt lat="51.801092" lon="-2.196437"><ele>250.56</ele><time>2011-03-02T11:44:18Z</time></trkpt><trkpt lat="51.801034" lon="-2.196462"><ele>251.04</ele><time>2011-03-02T11:44:23Z</time></trkpt><trkpt lat="51.800999" lon="-2.196496"><ele>252.00</ele><time>2011-03-02T11:44:27Z</time></trkpt><trkpt lat="51.800872" lon="-2.196645"><ele>254.89</ele><time>2011-03-02T11:44:43Z</time></trkpt><trkpt lat="51.800828" lon="-2.196673"><ele>254.89</ele><time>2011-03-02T11:44:47Z</time></trkpt><trkpt lat="51.800805" lon="-2.196680"><ele>254.41</ele><time>2011-03-02T11:44:49Z</time></trkpt><trkpt lat="51.800675" lon="-2.196829"><ele>249.12</ele><time>2011-03-02T11:45:06Z</time></trkpt><trkpt lat="51.800668" lon="-2.196841"><ele>249.12</ele><time>2011-03-02T11:45:07Z</time></trkpt><trkpt lat="51.800577" lon="-2.196966"><ele>248.16</ele><time>2011-03-02T11:45:20Z</time></trkpt><trkpt lat="51.800451" lon="-2.197171"><ele>247.68</ele><time>2011-03-02T11:45:36Z</time></trkpt><trkpt lat="51.800365" lon="-2.197202"><ele>245.27</ele><time>2011-03-02T11:45:48Z</time></trkpt><trkpt lat="51.800288" lon="-2.197242"><ele>247.68</ele><time>2011-03-02T11:46:01Z</time></trkpt><trkpt lat="51.800286" lon="-2.197267"><ele>247.20</ele><time>2011-03-02T11:46:06Z</time></trkpt><trkpt lat="51.800267" lon="-2.197402"><ele>248.16</ele><time>2011-03-02T11:46:14Z</time></trkpt><trkpt lat="51.800166" lon="-2.197390"><ele>249.12</ele><time>2011-03-02T11:46:24Z</time></trkpt><trkpt lat="51.800084" lon="-2.197462"><ele>248.64</ele><time>2011-03-02T11:46:37Z</time></trkpt><trkpt lat="51.800076" lon="-2.197471"><ele>248.64</ele><time>2011-03-02T11:46:38Z</time></trkpt><trkpt lat="51.800062" lon="-2.197496"><ele>248.16</ele><time>2011-03-02T11:46:40Z</time></trkpt><trkpt lat="51.799956" lon="-2.197438"><ele>245.75</ele><time>2011-03-02T11:46:52Z</time></trkpt><trkpt lat="51.799790" lon="-2.197434"><ele>245.75</ele><time>2011-03-02T11:47:04Z</time></trkpt><trkpt lat="51.799717" lon="-2.197422"><ele>246.72</ele><time>2011-03-02T11:47:12Z</time></trkpt><trkpt lat="51.799596" lon="-2.197447"><ele>249.12</ele><time>2011-03-02T11:47:24Z</time></trkpt><trkpt lat="51.799441" lon="-2.197422"><ele>249.12</ele><time>2011-03-02T11:47:39Z</time></trkpt><trkpt lat="51.799336" lon="-2.197349"><ele>247.68</ele><time>2011-03-02T11:47:51Z</time></trkpt><trkpt lat="51.799169" lon="-2.197270"><ele>243.83</ele><time>2011-03-02T11:48:05Z</time></trkpt><trkpt lat="51.799007" lon="-2.197195"><ele>244.31</ele><time>2011-03-02T11:48:23Z</time></trkpt><trkpt lat="51.798844" lon="-2.197134"><ele>247.20</ele><time>2011-03-02T11:48:41Z</time></trkpt><trkpt lat="51.798712" lon="-2.197054"><ele>247.68</ele><time>2011-03-02T11:48:55Z</time></trkpt><trkpt lat="51.798567" lon="-2.196954"><ele>253.93</ele><time>2011-03-02T11:49:11Z</time></trkpt><trkpt lat="51.798417" lon="-2.196789"><ele>252.96</ele><time>2011-03-02T11:49:26Z</time></trkpt><trkpt lat="51.798230" lon="-2.196663"><ele>252.48</ele><time>2011-03-02T11:49:44Z</time></trkpt><trkpt lat="51.798053" lon="-2.196572"><ele>252.48</ele><time>2011-03-02T11:50:01Z</time></trkpt><trkpt lat="51.797901" lon="-2.196404"><ele>252.48</ele><time>2011-03-02T11:50:17Z</time></trkpt><trkpt lat="51.797832" lon="-2.196376"><ele>252.48</ele><time>2011-03-02T11:50:22Z</time></trkpt><trkpt lat="51.797669" lon="-2.196249"><ele>248.64</ele><time>2011-03-02T11:50:37Z</time></trkpt><trkpt lat="51.797488" lon="-2.196131"><ele>246.72</ele><time>2011-03-02T11:50:54Z</time></trkpt><trkpt lat="51.797372" lon="-2.196025"><ele>249.12</ele><time>2011-03-02T11:51:07Z</time></trkpt><trkpt lat="51.797244" lon="-2.195953"><ele>253.93</ele><time>2011-03-02T11:51:21Z</time></trkpt><trkpt lat="51.797219" lon="-2.195945"><ele>254.89</ele><time>2011-03-02T11:51:23Z</time></trkpt><trkpt lat="51.797138" lon="-2.195894"><ele>257.29</ele><time>2011-03-02T11:51:30Z</time></trkpt><trkpt lat="51.797039" lon="-2.195845"><ele>260.17</ele><time>2011-03-02T11:51:38Z</time></trkpt><trkpt lat="51.796791" lon="-2.195650"><ele>255.85</ele><time>2011-03-02T11:51:56Z</time></trkpt><trkpt lat="51.796758" lon="-2.195637"><ele>255.37</ele><time>2011-03-02T11:52:00Z</time></trkpt><trkpt lat="51.796581" lon="-2.195473"><ele>246.23</ele><time>2011-03-02T11:52:18Z</time></trkpt><trkpt lat="51.796407" lon="-2.195376"><ele>240.47</ele><time>2011-03-02T11:52:35Z</time></trkpt><trkpt lat="51.796177" lon="-2.195410"><ele>239.02</ele><time>2011-03-02T11:52:52Z</time></trkpt><trkpt lat="51.795965" lon="-2.195383"><ele>244.31</ele><time>2011-03-02T11:53:10Z</time></trkpt><trkpt lat="51.795772" lon="-2.195368"><ele>241.91</ele><time>2011-03-02T11:53:25Z</time></trkpt><trkpt lat="51.795758" lon="-2.195417"><ele>243.35</ele><time>2011-03-02T11:53:41Z</time></trkpt><trkpt lat="51.795751" lon="-2.195443"><ele>241.91</ele><time>2011-03-02T11:54:12Z</time></trkpt><trkpt lat="51.795605" lon="-2.195561"><ele>231.81</ele><time>2011-03-02T11:54:25Z</time></trkpt><trkpt lat="51.795484" lon="-2.195536"><ele>224.61</ele><time>2011-03-02T11:54:41Z</time></trkpt><trkpt lat="51.795343" lon="-2.195537"><ele>222.68</ele><time>2011-03-02T11:54:56Z</time></trkpt><trkpt lat="51.795328" lon="-2.195529"><ele>222.20</ele><time>2011-03-02T11:54:57Z</time></trkpt><trkpt lat="51.795229" lon="-2.195410"><ele>222.20</ele><time>2011-03-02T11:55:08Z</time></trkpt><trkpt lat="51.795083" lon="-2.195343"><ele>222.20</ele><time>2011-03-02T11:55:23Z</time></trkpt><trkpt lat="51.794938" lon="-2.195314"><ele>219.80</ele><time>2011-03-02T11:55:39Z</time></trkpt><trkpt lat="51.794813" lon="-2.195282"><ele>218.36</ele><time>2011-03-02T11:55:53Z</time></trkpt><trkpt lat="51.794750" lon="-2.195247"><ele>217.40</ele><time>2011-03-02T11:56:00Z</time></trkpt><trkpt lat="51.794587" lon="-2.195284"><ele>218.36</ele><time>2011-03-02T11:56:15Z</time></trkpt><trkpt lat="51.794484" lon="-2.195512"><ele>215.47</ele><time>2011-03-02T11:56:30Z</time></trkpt><trkpt lat="51.794473" lon="-2.195580"><ele>214.51</ele><time>2011-03-02T11:56:37Z</time></trkpt><trkpt lat="51.794315" lon="-2.195419"><ele>212.59</ele><time>2011-03-02T11:56:54Z</time></trkpt><trkpt lat="51.794194" lon="-2.195233"><ele>212.59</ele><time>2011-03-02T11:57:08Z</time></trkpt><trkpt lat="51.794033" lon="-2.195036"><ele>215.95</ele><time>2011-03-02T11:57:24Z</time></trkpt><trkpt lat="51.793936" lon="-2.194876"><ele>213.55</ele><time>2011-03-02T11:57:34Z</time></trkpt><trkpt lat="51.793917" lon="-2.194723"><ele>215.47</ele><time>2011-03-02T11:57:47Z</time></trkpt><trkpt lat="51.793941" lon="-2.194673"><ele>217.88</ele><time>2011-03-02T11:57:59Z</time></trkpt><trkpt lat="51.793858" lon="-2.194544"><ele>217.40</ele><time>2011-03-02T11:58:14Z</time></trkpt><trkpt lat="51.793739" lon="-2.194545"><ele>214.51</ele><time>2011-03-02T11:58:21Z</time></trkpt><trkpt lat="51.793586" lon="-2.194585"><ele>213.07</ele><time>2011-03-02T11:58:35Z</time></trkpt><trkpt lat="51.793434" lon="-2.194605"><ele>213.55</ele><time>2011-03-02T11:58:50Z</time></trkpt><trkpt lat="51.793425" lon="-2.194597"><ele>213.07</ele><time>2011-03-02T11:58:51Z</time></trkpt><trkpt lat="51.793297" lon="-2.194611"><ele>209.70</ele><time>2011-03-02T11:59:04Z</time></trkpt><trkpt lat="51.793214" lon="-2.194640"><ele>207.30</ele><time>2011-03-02T11:59:12Z</time></trkpt><trkpt lat="51.793059" lon="-2.194654"><ele>204.42</ele><time>2011-03-02T11:59:25Z</time></trkpt><trkpt lat="51.792904" lon="-2.194653"><ele>204.90</ele><time>2011-03-02T11:59:40Z</time></trkpt><trkpt lat="51.792743" lon="-2.194686"><ele>205.38</ele><time>2011-03-02T11:59:55Z</time></trkpt><trkpt lat="51.792668" lon="-2.194716"><ele>204.42</ele><time>2011-03-02T12:00:07Z</time></trkpt><trkpt lat="51.792560" lon="-2.194823"><ele>205.38</ele><time>2011-03-02T12:00:22Z</time></trkpt><trkpt lat="51.792437" lon="-2.194909"><ele>206.34</ele><time>2011-03-02T12:00:35Z</time></trkpt><trkpt lat="51.792273" lon="-2.194905"><ele>207.30</ele><time>2011-03-02T12:00:56Z</time></trkpt><trkpt lat="51.792129" lon="-2.194945"><ele>206.82</ele><time>2011-03-02T12:01:08Z</time></trkpt><trkpt lat="51.792066" lon="-2.194981"><ele>207.78</ele><time>2011-03-02T12:01:14Z</time></trkpt><trkpt lat="51.791868" lon="-2.194967"><ele>199.61</ele><time>2011-03-02T12:01:33Z</time></trkpt><trkpt lat="51.791714" lon="-2.194998"><ele>194.80</ele><time>2011-03-02T12:01:49Z</time></trkpt><trkpt lat="51.791532" lon="-2.195057"><ele>196.25</ele><time>2011-03-02T12:02:04Z</time></trkpt><trkpt lat="51.791470" lon="-2.195027"><ele>197.21</ele><time>2011-03-02T12:02:26Z</time></trkpt><trkpt lat="51.791287" lon="-2.195107"><ele>197.21</ele><time>2011-03-02T12:02:43Z</time></trkpt><trkpt lat="51.791088" lon="-2.195065"><ele>190.48</ele><time>2011-03-02T12:02:59Z</time></trkpt><trkpt lat="51.790935" lon="-2.195075"><ele>188.56</ele><time>2011-03-02T12:03:13Z</time></trkpt><trkpt lat="51.790798" lon="-2.195060"><ele>189.04</ele><time>2011-03-02T12:03:25Z</time></trkpt><trkpt lat="51.790584" lon="-2.195022"><ele>184.23</ele><time>2011-03-02T12:03:44Z</time></trkpt><trkpt lat="51.790394" lon="-2.194970"><ele>183.75</ele><time>2011-03-02T12:04:02Z</time></trkpt><trkpt lat="51.790198" lon="-2.195003"><ele>183.27</ele><time>2011-03-02T12:04:18Z</time></trkpt><trkpt lat="51.789968" lon="-2.194891"><ele>180.38</ele><time>2011-03-02T12:04:41Z</time></trkpt><trkpt lat="51.789822" lon="-2.194789"><ele>178.94</ele><time>2011-03-02T12:05:00Z</time></trkpt><trkpt lat="51.789714" lon="-2.194750"><ele>178.94</ele><time>2011-03-02T12:05:14Z</time></trkpt><trkpt lat="51.789503" lon="-2.194780"><ele>177.02</ele><time>2011-03-02T12:05:33Z</time></trkpt><trkpt lat="51.789294" lon="-2.194840"><ele>176.54</ele><time>2011-03-02T12:05:51Z</time></trkpt><trkpt lat="51.789134" lon="-2.194848"><ele>173.66</ele><time>2011-03-02T12:06:07Z</time></trkpt><trkpt lat="51.789126" lon="-2.194845"><ele>173.66</ele><time>2011-03-02T12:06:08Z</time></trkpt><trkpt lat="51.789103" lon="-2.194836"><ele>173.17</ele><time>2011-03-02T12:06:11Z</time></trkpt><trkpt lat="51.788898" lon="-2.194684"><ele>173.17</ele><time>2011-03-02T12:06:31Z</time></trkpt><trkpt lat="51.788770" lon="-2.194596"><ele>171.73</ele><time>2011-03-02T12:06:45Z</time></trkpt><trkpt lat="51.788679" lon="-2.194540"><ele>173.17</ele><time>2011-03-02T12:06:57Z</time></trkpt><trkpt lat="51.788578" lon="-2.194469"><ele>170.29</ele><time>2011-03-02T12:07:07Z</time></trkpt><trkpt lat="51.788542" lon="-2.194466"><ele>169.33</ele><time>2011-03-02T12:07:10Z</time></trkpt><trkpt lat="51.788409" lon="-2.194389"><ele>167.41</ele><time>2011-03-02T12:07:24Z</time></trkpt><trkpt lat="51.788332" lon="-2.194307"><ele>164.04</ele><time>2011-03-02T12:07:36Z</time></trkpt><trkpt lat="51.788173" lon="-2.194176"><ele>156.35</ele><time>2011-03-02T12:07:54Z</time></trkpt><trkpt lat="51.788044" lon="-2.194127"><ele>158.27</ele><time>2011-03-02T12:08:11Z</time></trkpt><trkpt lat="51.787949" lon="-2.193980"><ele>158.75</ele><time>2011-03-02T12:08:28Z</time></trkpt><trkpt lat="51.787708" lon="-2.193893"><ele>159.72</ele><time>2011-03-02T12:08:46Z</time></trkpt><trkpt lat="51.787668" lon="-2.193867"><ele>160.20</ele><time>2011-03-02T12:08:50Z</time></trkpt><trkpt lat="51.787541" lon="-2.193744"><ele>162.12</ele><time>2011-03-02T12:09:05Z</time></trkpt><trkpt lat="51.787421" lon="-2.193656"><ele>164.04</ele><time>2011-03-02T12:09:17Z</time></trkpt><trkpt lat="51.787256" lon="-2.193540"><ele>159.24</ele><time>2011-03-02T12:09:35Z</time></trkpt><trkpt lat="51.787095" lon="-2.193434"><ele>159.72</ele><time>2011-03-02T12:09:48Z</time></trkpt><trkpt lat="51.786968" lon="-2.193372"><ele>161.16</ele><time>2011-03-02T12:09:59Z</time></trkpt><trkpt lat="51.786924" lon="-2.193346"><ele>160.20</ele><time>2011-03-02T12:10:03Z</time></trkpt><trkpt lat="51.786826" lon="-2.193577"><ele>157.79</ele><time>2011-03-02T12:10:18Z</time></trkpt><trkpt lat="51.786718" lon="-2.193901"><ele>156.35</ele><time>2011-03-02T12:10:37Z</time></trkpt><trkpt lat="51.786557" lon="-2.194259"><ele>154.43</ele><time>2011-03-02T12:11:01Z</time></trkpt><trkpt lat="51.786522" lon="-2.194317"><ele>155.87</ele><time>2011-03-02T12:11:16Z</time></trkpt><trkpt lat="51.786357" lon="-2.194488"><ele>152.03</ele><time>2011-03-02T12:11:33Z</time></trkpt><trkpt lat="51.786345" lon="-2.194522"><ele>150.10</ele><time>2011-03-02T12:11:56Z</time></trkpt><trkpt lat="51.786415" lon="-2.194488"><ele>149.14</ele><time>2011-03-02T12:12:18Z</time></trkpt><trkpt lat="51.786398" lon="-2.194507"><ele>148.18</ele><time>2011-03-02T12:12:51Z</time></trkpt><trkpt lat="51.786340" lon="-2.194714"><ele>145.78</ele><time>2011-03-02T12:13:06Z</time></trkpt><trkpt lat="51.786400" lon="-2.194655"><ele>143.85</ele><time>2011-03-02T12:13:23Z</time></trkpt><trkpt lat="51.786518" lon="-2.194561"><ele>146.26</ele><time>2011-03-02T12:13:38Z</time></trkpt><trkpt lat="51.786567" lon="-2.194403"><ele>149.14</ele><time>2011-03-02T12:13:51Z</time></trkpt><trkpt lat="51.786674" lon="-2.194486"><ele>150.10</ele><time>2011-03-02T12:14:12Z</time></trkpt><trkpt lat="51.786691" lon="-2.194506"><ele>151.54</ele><time>2011-03-02T12:14:35Z</time></trkpt><trkpt lat="51.786689" lon="-2.194454"><ele>151.06</ele><time>2011-03-02T12:14:44Z</time></trkpt><trkpt lat="51.786444" lon="-2.194199"><ele>144.34</ele><time>2011-03-02T12:16:40Z</time></trkpt><trkpt lat="51.786348" lon="-2.194349"><ele>150.10</ele><time>2011-03-02T12:16:53Z</time></trkpt><trkpt lat="51.786210" lon="-2.194577"><ele>151.06</ele><time>2011-03-02T12:17:07Z</time></trkpt><trkpt lat="51.786199" lon="-2.194593"><ele>150.58</ele><time>2011-03-02T12:17:08Z</time></trkpt><trkpt lat="51.786187" lon="-2.194756"><ele>148.66</ele><time>2011-03-02T12:17:13Z</time></trkpt><trkpt lat="51.786110" lon="-2.195123"><ele>144.34</ele><time>2011-03-02T12:17:31Z</time></trkpt><trkpt lat="51.786061" lon="-2.195172"><ele>143.37</ele><time>2011-03-02T12:17:36Z</time></trkpt><trkpt lat="51.786025" lon="-2.195228"><ele>142.89</ele><time>2011-03-02T12:17:40Z</time></trkpt><trkpt lat="51.785811" lon="-2.195474"><ele>140.97</ele><time>2011-03-02T12:17:58Z</time></trkpt><trkpt lat="51.785780" lon="-2.195513"><ele>141.45</ele><time>2011-03-02T12:18:01Z</time></trkpt><trkpt lat="51.785726" lon="-2.195511"><ele>145.78</ele><time>2011-03-02T12:18:06Z</time></trkpt><trkpt lat="51.785829" lon="-2.195780"><ele>150.58</ele><time>2011-03-02T12:18:17Z</time></trkpt><trkpt lat="51.785857" lon="-2.195802"><ele>148.66</ele><time>2011-03-02T12:18:20Z</time></trkpt><trkpt lat="51.785905" lon="-2.195874"><ele>148.18</ele><time>2011-03-02T12:18:24Z</time></trkpt><trkpt lat="51.785916" lon="-2.195917"><ele>148.18</ele><time>2011-03-02T12:18:26Z</time></trkpt><trkpt lat="51.785934" lon="-2.196037"><ele>149.62</ele><time>2011-03-02T12:18:31Z</time></trkpt><trkpt lat="51.785927" lon="-2.196136"><ele>152.03</ele><time>2011-03-02T12:18:35Z</time></trkpt><trkpt lat="51.785919" lon="-2.196284"><ele>152.03</ele><time>2011-03-02T12:18:43Z</time></trkpt><trkpt lat="51.785884" lon="-2.196357"><ele>148.66</ele><time>2011-03-02T12:18:55Z</time></trkpt></trkseg></trk></gpx>